sensor_id;sensor_type;location;lat;lon;timestamp;temperature;humidity
67897;DHT22;54698;48.428;9.964;2022-08-21T00:01:25;13.90;99.90
67897;DHT22;54698;48.428;9.964;2022-08-21T00:03:52;13.90;99.90
67897;DHT22;54698;48.428;9.964;2022-08-21T00:06:19;13.80;99.90
67897;DHT22;54698;48.428;9.964;2022-08-21T00:08:45;13.90;99.90
67897;DHT22;54698;48.428;9.964;2022-08-21T00:11:12;13.90;99.90
67897;DHT22;54698;48.428;9.964;2022-08-21T00:13:38;14.00;99.90
67897;DHT22;54698;48.428;9.964;2022-08-21T00:16:04;14.10;99.90
67897;DHT22;54698;48.428;9.964;2022-08-21T00:18:31;14.10;99.90
67897;DHT22;54698;48.428;9.964;2022-08-21T00:20:57;14.10;99.90
67897;DHT22;54698;48.428;9.964;2022-08-21T00:23:22;14.00;99.90
67897;DHT22;54698;48.428;9.964;2022-08-21T00:25:49;13.90;99.90
67897;DHT22;54698;48.428;9.964;2022-08-21T00:28:16;13.90;99.90
67897;DHT22;54698;48.428;9.964;2022-08-21T00:30:43;13.80;99.90
67897;DHT22;54698;48.428;9.964;2022-08-21T00:33:09;13.90;99.90
67897;DHT22;54698;48.428;9.964;2022-08-21T00:35:39;13.90;99.90
67897;DHT22;54698;48.428;9.964;2022-08-21T00:38:07;13.90;99.90
67897;DHT22;54698;48.428;9.964;2022-08-21T00:40:36;13.90;99.90
67897;DHT22;54698;48.428;9.964;2022-08-21T00:43:07;13.90;99.90
67897;DHT22;54698;48.428;9.964;2022-08-21T00:45:35;13.90;99.90
67897;DHT22;54698;48.428;9.964;2022-08-21T00:48:01;13.90;99.90
67897;DHT22;54698;48.428;9.964;2022-08-21T00:50:31;13.90;99.90
67897;DHT22;54698;48.428;9.964;2022-08-21T00:52:59;14.00;99.90
67897;DHT22;54698;48.428;9.964;2022-08-21T00:55:26;14.10;99.90
67897;DHT22;54698;48.428;9.964;2022-08-21T00:57:55;14.20;99.90
67897;DHT22;54698;48.428;9.964;2022-08-21T01:00:26;14.20;99.90
67897;DHT22;54698;48.428;9.964;2022-08-21T01:02:54;14.30;99.90
67897;DHT22;54698;48.428;9.964;2022-08-21T01:05:20;14.30;99.90
67897;DHT22;54698;48.428;9.964;2022-08-21T01:07:46;14.30;99.90
67897;DHT22;54698;48.428;9.964;2022-08-21T01:10:13;14.30;99.90
67897;DHT22;54698;48.428;9.964;2022-08-21T01:12:39;14.30;99.90
67897;DHT22;54698;48.428;9.964;2022-08-21T01:15:07;14.40;99.90
67897;DHT22;54698;48.428;9.964;2022-08-21T01:17:34;14.50;99.90
67897;DHT22;54698;48.428;9.964;2022-08-21T01:20:07;14.60;99.90
67897;DHT22;54698;48.428;9.964;2022-08-21T01:22:36;14.50;99.90
67897;DHT22;54698;48.428;9.964;2022-08-21T01:25:02;14.50;99.90
67897;DHT22;54698;48.428;9.964;2022-08-21T01:27:29;14.40;99.90
67897;DHT22;54698;48.428;9.964;2022-08-21T01:29:57;14.40;99.90
67897;DHT22;54698;48.428;9.964;2022-08-21T01:32:27;14.60;99.90
67897;DHT22;54698;48.428;9.964;2022-08-21T01:34:53;14.60;99.90
67897;DHT22;54698;48.428;9.964;2022-08-21T01:37:20;14.30;99.90
67897;DHT22;54698;48.428;9.964;2022-08-21T01:39:48;14.20;99.90
67897;DHT22;54698;48.428;9.964;2022-08-21T01:42:14;14.20;99.90
67897;DHT22;54698;48.428;9.964;2022-08-21T01:44:41;14.20;99.90
67897;DHT22;54698;48.428;9.964;2022-08-21T01:47:10;14.20;99.90
67897;DHT22;54698;48.428;9.964;2022-08-21T01:49:37;14.00;99.90
67897;DHT22;54698;48.428;9.964;2022-08-21T01:52:04;13.90;99.90
67897;DHT22;54698;48.428;9.964;2022-08-21T01:54:31;13.90;99.90
67897;DHT22;54698;48.428;9.964;2022-08-21T01:57:00;13.90;99.90
67897;DHT22;54698;48.428;9.964;2022-08-21T01:59:26;13.90;99.90
67897;DHT22;54698;48.428;9.964;2022-08-21T02:01:53;14.00;99.90
67897;DHT22;54698;48.428;9.964;2022-08-21T02:04:19;14.10;99.90
67897;DHT22;54698;48.428;9.964;2022-08-21T02:06:45;14.10;99.90
67897;DHT22;54698;48.428;9.964;2022-08-21T02:09:11;14.00;99.90
67897;DHT22;54698;48.428;9.964;2022-08-21T02:11:37;14.00;99.90
67897;DHT22;54698;48.428;9.964;2022-08-21T02:14:05;13.90;99.90
67897;DHT22;54698;48.428;9.964;2022-08-21T02:16:31;13.80;99.90
67897;DHT22;54698;48.428;9.964;2022-08-21T02:18:56;13.60;99.90
67897;DHT22;54698;48.428;9.964;2022-08-21T02:21:22;13.60;99.90
67897;DHT22;54698;48.428;9.964;2022-08-21T02:23:48;13.60;99.90
67897;DHT22;54698;48.428;9.964;2022-08-21T02:26:14;13.60;99.90
67897;DHT22;54698;48.428;9.964;2022-08-21T02:28:40;13.70;99.90
67897;DHT22;54698;48.428;9.964;2022-08-21T02:31:08;13.60;99.90
67897;DHT22;54698;48.428;9.964;2022-08-21T02:33:34;13.50;99.90
67897;DHT22;54698;48.428;9.964;2022-08-21T02:36:01;13.50;99.90
67897;DHT22;54698;48.428;9.964;2022-08-21T02:38:29;13.40;99.90
67897;DHT22;54698;48.428;9.964;2022-08-21T02:40:56;13.40;99.90
67897;DHT22;54698;48.428;9.964;2022-08-21T02:43:24;13.30;99.90
67897;DHT22;54698;48.428;9.964;2022-08-21T02:45:52;13.30;99.90
67897;DHT22;54698;48.428;9.964;2022-08-21T02:48:23;13.20;99.90
67897;DHT22;54698;48.428;9.964;2022-08-21T02:50:57;13.10;99.90
67897;DHT22;54698;48.428;9.964;2022-08-21T02:53:24;13.10;99.90
67897;DHT22;54698;48.428;9.964;2022-08-21T02:55:52;13.20;99.90
67897;DHT22;54698;48.428;9.964;2022-08-21T02:58:24;13.30;99.90
67897;DHT22;54698;48.428;9.964;2022-08-21T03:00:52;13.40;99.90
67897;DHT22;54698;48.428;9.964;2022-08-21T03:03:18;13.40;99.90
67897;DHT22;54698;48.428;9.964;2022-08-21T03:05:46;13.40;99.90
67897;DHT22;54698;48.428;9.964;2022-08-21T03:08:14;13.50;99.90
67897;DHT22;54698;48.428;9.964;2022-08-21T03:10:42;13.50;99.90
67897;DHT22;54698;48.428;9.964;2022-08-21T03:13:11;13.50;99.90
67897;DHT22;54698;48.428;9.964;2022-08-21T03:15:38;13.50;99.90
67897;DHT22;54698;48.428;9.964;2022-08-21T03:18:05;13.50;99.90
67897;DHT22;54698;48.428;9.964;2022-08-21T03:20:31;13.60;99.90
67897;DHT22;54698;48.428;9.964;2022-08-21T03:22:59;13.60;99.90
67897;DHT22;54698;48.428;9.964;2022-08-21T03:25:28;13.60;99.90
67897;DHT22;54698;48.428;9.964;2022-08-21T03:27:54;13.50;99.90
67897;DHT22;54698;48.428;9.964;2022-08-21T03:30:21;13.50;99.90
67897;DHT22;54698;48.428;9.964;2022-08-21T03:32:47;13.40;99.90
67897;DHT22;54698;48.428;9.964;2022-08-21T03:35:13;13.50;99.90
67897;DHT22;54698;48.428;9.964;2022-08-21T03:37:39;13.40;99.90
67897;DHT22;54698;48.428;9.964;2022-08-21T03:40:08;13.40;99.90
67897;DHT22;54698;48.428;9.964;2022-08-21T03:42:35;13.20;99.90
67897;DHT22;54698;48.428;9.964;2022-08-21T03:45:02;13.20;99.90
67897;DHT22;54698;48.428;9.964;2022-08-21T03:47:28;13.10;99.90
67897;DHT22;54698;48.428;9.964;2022-08-21T03:49:54;13.00;99.90
67897;DHT22;54698;48.428;9.964;2022-08-21T03:52:20;13.00;99.90
67897;DHT22;54698;48.428;9.964;2022-08-21T03:54:45;13.10;99.90
67897;DHT22;54698;48.428;9.964;2022-08-21T03:57:13;13.10;99.90
67897;DHT22;54698;48.428;9.964;2022-08-21T03:59:39;13.10;99.90
67897;DHT22;54698;48.428;9.964;2022-08-21T04:02:06;13.00;99.90
67897;DHT22;54698;48.428;9.964;2022-08-21T04:04:33;12.90;99.90
67897;DHT22;54698;48.428;9.964;2022-08-21T04:07:00;12.90;99.90
67897;DHT22;54698;48.428;9.964;2022-08-21T04:09:26;12.90;99.90
67897;DHT22;54698;48.428;9.964;2022-08-21T04:11:52;13.00;99.90
67897;DHT22;54698;48.428;9.964;2022-08-21T04:14:20;13.00;99.90
67897;DHT22;54698;48.428;9.964;2022-08-21T04:16:46;13.00;99.90
67897;DHT22;54698;48.428;9.964;2022-08-21T04:19:12;13.00;99.90
67897;DHT22;54698;48.428;9.964;2022-08-21T04:21:39;12.90;99.90
67897;DHT22;54698;48.428;9.964;2022-08-21T04:24:06;13.00;99.90
67897;DHT22;54698;48.428;9.964;2022-08-21T04:26:33;13.00;99.90
67897;DHT22;54698;48.428;9.964;2022-08-21T04:28:59;13.00;99.90
67897;DHT22;54698;48.428;9.964;2022-08-21T04:31:27;13.00;99.90
67897;DHT22;54698;48.428;9.964;2022-08-21T04:33:53;12.90;99.90
67897;DHT22;54698;48.428;9.964;2022-08-21T04:36:18;12.80;99.90
67897;DHT22;54698;48.428;9.964;2022-08-21T04:38:44;12.70;99.90
67897;DHT22;54698;48.428;9.964;2022-08-21T04:41:10;12.70;99.90
67897;DHT22;54698;48.428;9.964;2022-08-21T04:43:38;12.70;99.90
67897;DHT22;54698;48.428;9.964;2022-08-21T04:46:04;12.80;99.90
67897;DHT22;54698;48.428;9.964;2022-08-21T04:48:32;12.80;99.90
67897;DHT22;54698;48.428;9.964;2022-08-21T04:51:03;12.80;99.90
67897;DHT22;54698;48.428;9.964;2022-08-21T04:53:35;12.90;99.90
67897;DHT22;54698;48.428;9.964;2022-08-21T04:56:05;13.00;99.90
67897;DHT22;54698;48.428;9.964;2022-08-21T04:58:34;13.00;99.90
67897;DHT22;54698;48.428;9.964;2022-08-21T05:01:02;13.00;99.90
67897;DHT22;54698;48.428;9.964;2022-08-21T05:03:30;13.10;99.90
67897;DHT22;54698;48.428;9.964;2022-08-21T05:05:58;13.10;99.90
67897;DHT22;54698;48.428;9.964;2022-08-21T05:08:25;13.20;99.90
67897;DHT22;54698;48.428;9.964;2022-08-21T05:10:52;13.30;99.90
67897;DHT22;54698;48.428;9.964;2022-08-21T05:13:18;13.30;99.90
67897;DHT22;54698;48.428;9.964;2022-08-21T05:15:44;13.40;99.90
67897;DHT22;54698;48.428;9.964;2022-08-21T05:18:10;13.50;99.90
67897;DHT22;54698;48.428;9.964;2022-08-21T05:20:37;13.60;99.90
67897;DHT22;54698;48.428;9.964;2022-08-21T05:23:07;13.70;99.90
67897;DHT22;54698;48.428;9.964;2022-08-21T05:25:33;13.90;99.90
67897;DHT22;54698;48.428;9.964;2022-08-21T05:27:59;13.90;99.90
67897;DHT22;54698;48.428;9.964;2022-08-21T05:30:25;13.80;99.90
67897;DHT22;54698;48.428;9.964;2022-08-21T05:32:56;13.80;99.90
67897;DHT22;54698;48.428;9.964;2022-08-21T05:35:22;13.80;99.90
67897;DHT22;54698;48.428;9.964;2022-08-21T05:37:49;13.80;99.90
67897;DHT22;54698;48.428;9.964;2022-08-21T05:40:15;13.80;99.90
67897;DHT22;54698;48.428;9.964;2022-08-21T05:42:41;13.80;99.90
67897;DHT22;54698;48.428;9.964;2022-08-21T05:45:07;13.80;99.90
67897;DHT22;54698;48.428;9.964;2022-08-21T05:47:33;13.90;99.90
67897;DHT22;54698;48.428;9.964;2022-08-21T05:49:59;13.90;99.90
67897;DHT22;54698;48.428;9.964;2022-08-21T05:52:25;13.90;99.90
67897;DHT22;54698;48.428;9.964;2022-08-21T05:54:52;14.10;99.90
67897;DHT22;54698;48.428;9.964;2022-08-21T05:57:18;14.20;99.90
67897;DHT22;54698;48.428;9.964;2022-08-21T05:59:44;14.30;99.90
67897;DHT22;54698;48.428;9.964;2022-08-21T06:02:09;14.40;99.90
67897;DHT22;54698;48.428;9.964;2022-08-21T06:04:36;14.50;99.90
67897;DHT22;54698;48.428;9.964;2022-08-21T06:07:02;14.70;99.90
67897;DHT22;54698;48.428;9.964;2022-08-21T06:09:28;14.80;99.90
67897;DHT22;54698;48.428;9.964;2022-08-21T06:11:56;14.80;99.90
67897;DHT22;54698;48.428;9.964;2022-08-21T06:14:21;15.00;99.90
67897;DHT22;54698;48.428;9.964;2022-08-21T06:16:47;15.10;99.90
67897;DHT22;54698;48.428;9.964;2022-08-21T06:19:13;15.20;99.90
67897;DHT22;54698;48.428;9.964;2022-08-21T06:21:39;15.30;99.90
67897;DHT22;54698;48.428;9.964;2022-08-21T06:24:05;15.40;99.90
67897;DHT22;54698;48.428;9.964;2022-08-21T06:26:31;15.50;99.90
67897;DHT22;54698;48.428;9.964;2022-08-21T06:28:58;15.60;99.90
67897;DHT22;54698;48.428;9.964;2022-08-21T06:31:26;15.70;99.90
67897;DHT22;54698;48.428;9.964;2022-08-21T06:33:53;15.70;99.90
67897;DHT22;54698;48.428;9.964;2022-08-21T06:36:19;15.90;99.90
67897;DHT22;54698;48.428;9.964;2022-08-21T06:38:45;16.00;99.90
67897;DHT22;54698;48.428;9.964;2022-08-21T06:41:11;16.00;99.90
67897;DHT22;54698;48.428;9.964;2022-08-21T06:43:37;16.10;99.90
67897;DHT22;54698;48.428;9.964;2022-08-21T06:46:04;16.30;99.90
67897;DHT22;54698;48.428;9.964;2022-08-21T06:48:30;16.40;99.90
67897;DHT22;54698;48.428;9.964;2022-08-21T06:50:56;16.50;99.90
67897;DHT22;54698;48.428;9.964;2022-08-21T06:53:22;16.60;99.90
67897;DHT22;54698;48.428;9.964;2022-08-21T06:55:48;16.80;99.90
67897;DHT22;54698;48.428;9.964;2022-08-21T06:58:15;16.90;99.90
67897;DHT22;54698;48.428;9.964;2022-08-21T07:00:43;17.00;99.90
67897;DHT22;54698;48.428;9.964;2022-08-21T07:03:21;17.10;99.90
67897;DHT22;54698;48.428;9.964;2022-08-21T07:05:48;17.20;99.90
67897;DHT22;54698;48.428;9.964;2022-08-21T07:08:15;17.30;99.90
67897;DHT22;54698;48.428;9.964;2022-08-21T07:10:41;17.50;99.90
67897;DHT22;54698;48.428;9.964;2022-08-21T07:13:06;17.60;99.90
67897;DHT22;54698;48.428;9.964;2022-08-21T07:15:32;17.60;99.90
67897;DHT22;54698;48.428;9.964;2022-08-21T07:17:58;17.60;99.90
67897;DHT22;54698;48.428;9.964;2022-08-21T07:20:27;17.80;99.90
67897;DHT22;54698;48.428;9.964;2022-08-21T07:22:53;18.00;99.90
67897;DHT22;54698;48.428;9.964;2022-08-21T07:25:20;18.10;99.90
67897;DHT22;54698;48.428;9.964;2022-08-21T07:27:46;18.30;99.90
67897;DHT22;54698;48.428;9.964;2022-08-21T07:30:12;18.50;99.90
67897;DHT22;54698;48.428;9.964;2022-08-21T07:32:38;18.60;99.90
67897;DHT22;54698;48.428;9.964;2022-08-21T07:35:04;18.80;99.90
67897;DHT22;54698;48.428;9.964;2022-08-21T07:37:31;19.00;99.90
67897;DHT22;54698;48.428;9.964;2022-08-21T07:39:57;19.20;99.90
67897;DHT22;54698;48.428;9.964;2022-08-21T07:42:23;19.30;99.90
67897;DHT22;54698;48.428;9.964;2022-08-21T07:44:49;19.50;99.90
67897;DHT22;54698;48.428;9.964;2022-08-21T07:47:14;19.60;99.90
67897;DHT22;54698;48.428;9.964;2022-08-21T07:49:40;19.70;99.90
67897;DHT22;54698;48.428;9.964;2022-08-21T07:52:06;20.00;99.90
67897;DHT22;54698;48.428;9.964;2022-08-21T07:54:33;20.10;99.90
67897;DHT22;54698;48.428;9.964;2022-08-21T07:56:59;20.20;99.90
67897;DHT22;54698;48.428;9.964;2022-08-21T07:59:26;20.20;99.90
67897;DHT22;54698;48.428;9.964;2022-08-21T08:01:52;20.40;99.90
67897;DHT22;54698;48.428;9.964;2022-08-21T08:04:18;20.70;99.90
67897;DHT22;54698;48.428;9.964;2022-08-21T08:06:44;20.90;99.90
67897;DHT22;54698;48.428;9.964;2022-08-21T08:09:09;21.00;99.90
67897;DHT22;54698;48.428;9.964;2022-08-21T08:11:39;21.00;99.90
67897;DHT22;54698;48.428;9.964;2022-08-21T08:14:07;21.10;99.90
67897;DHT22;54698;48.428;9.964;2022-08-21T08:16:32;21.20;99.90
67897;DHT22;54698;48.428;9.964;2022-08-21T08:18:58;21.30;99.90
67897;DHT22;54698;48.428;9.964;2022-08-21T08:21:24;21.40;99.40
67897;DHT22;54698;48.428;9.964;2022-08-21T08:23:50;21.60;99.40
67897;DHT22;54698;48.428;9.964;2022-08-21T08:26:15;21.80;96.70
67897;DHT22;54698;48.428;9.964;2022-08-21T08:28:43;21.90;94.40
67897;DHT22;54698;48.428;9.964;2022-08-21T08:31:09;22.20;95.60
67897;DHT22;54698;48.428;9.964;2022-08-21T08:33:35;22.40;93.10
67897;DHT22;54698;48.428;9.964;2022-08-21T08:36:01;22.30;92.80
67897;DHT22;54698;48.428;9.964;2022-08-21T08:38:26;22.40;90.90
67897;DHT22;54698;48.428;9.964;2022-08-21T08:40:57;22.30;91.60
67897;DHT22;54698;48.428;9.964;2022-08-21T08:43:28;22.50;92.00
67897;DHT22;54698;48.428;9.964;2022-08-21T08:45:57;22.60;91.50
67897;DHT22;54698;48.428;9.964;2022-08-21T08:48:38;22.80;90.60
67897;DHT22;54698;48.428;9.964;2022-08-21T08:51:11;22.80;83.80
67897;DHT22;54698;48.428;9.964;2022-08-21T08:53:47;22.70;88.20
67897;DHT22;54698;48.428;9.964;2022-08-21T08:56:15;22.90;84.10
67897;DHT22;54698;48.428;9.964;2022-08-21T08:58:44;23.00;85.90
67897;DHT22;54698;48.428;9.964;2022-08-21T09:01:15;23.10;85.80
67897;DHT22;54698;48.428;9.964;2022-08-21T09:03:43;23.20;86.60
67897;DHT22;54698;48.428;9.964;2022-08-21T09:06:18;23.40;84.20
67897;DHT22;54698;48.428;9.964;2022-08-21T09:09:02;23.50;79.20
67897;DHT22;54698;48.428;9.964;2022-08-21T09:11:43;23.60;79.20
67897;DHT22;54698;48.428;9.964;2022-08-21T09:17:11;23.40;78.20
67897;DHT22;54698;48.428;9.964;2022-08-21T09:19:53;23.40;77.00
67897;DHT22;54698;48.428;9.964;2022-08-21T09:22:32;23.50;78.50
67897;DHT22;54698;48.428;9.964;2022-08-21T09:25:11;23.60;73.30
67897;DHT22;54698;48.428;9.964;2022-08-21T09:27:38;23.60;73.50
67897;DHT22;54698;48.428;9.964;2022-08-21T09:30:05;23.90;76.50
67897;DHT22;54698;48.428;9.964;2022-08-21T09:32:35;24.10;79.20
67897;DHT22;54698;48.428;9.964;2022-08-21T09:35:05;24.10;72.60
67897;DHT22;54698;48.428;9.964;2022-08-21T09:37:45;23.60;70.80
67897;DHT22;54698;48.428;9.964;2022-08-21T09:40:26;23.10;70.90
67897;DHT22;54698;48.428;9.964;2022-08-21T09:42:56;22.60;74.20
67897;DHT22;54698;48.428;9.964;2022-08-21T09:45:23;22.60;77.30
67897;DHT22;54698;48.428;9.964;2022-08-21T09:47:50;23.00;77.40
67897;DHT22;54698;48.428;9.964;2022-08-21T09:50:20;23.50;75.50
67897;DHT22;54698;48.428;9.964;2022-08-21T09:52:55;23.80;73.40
67897;DHT22;54698;48.428;9.964;2022-08-21T09:55:31;23.50;72.80
67897;DHT22;54698;48.428;9.964;2022-08-21T09:57:59;23.40;73.50
67897;DHT22;54698;48.428;9.964;2022-08-21T10:00:27;23.30;73.40
67897;DHT22;54698;48.428;9.964;2022-08-21T10:03:07;23.60;73.70
67897;DHT22;54698;48.428;9.964;2022-08-21T10:05:34;24.40;78.10
67897;DHT22;54698;48.428;9.964;2022-08-21T10:08:00;25.20;73.20
67897;DHT22;54698;48.428;9.964;2022-08-21T10:10:30;26.00;66.70
67897;DHT22;54698;48.428;9.964;2022-08-21T10:13:01;26.20;65.20
67897;DHT22;54698;48.428;9.964;2022-08-21T10:15:40;25.80;64.90
67897;DHT22;54698;48.428;9.964;2022-08-21T10:18:18;25.30;65.30
67897;DHT22;54698;48.428;9.964;2022-08-21T10:20:52;24.80;65.90
67897;DHT22;54698;48.428;9.964;2022-08-21T10:23:34;24.80;69.30
67897;DHT22;54698;48.428;9.964;2022-08-21T10:26:20;25.30;65.30
67897;DHT22;54698;48.428;9.964;2022-08-21T10:28:57;25.80;62.70
67897;DHT22;54698;48.428;9.964;2022-08-21T10:31:32;26.70;61.00
67897;DHT22;54698;48.428;9.964;2022-08-21T10:34:17;27.20;59.50
67897;DHT22;54698;48.428;9.964;2022-08-21T10:36:57;28.50;61.30
67897;DHT22;54698;48.428;9.964;2022-08-21T10:39:32;29.10;55.30
67897;DHT22;54698;48.428;9.964;2022-08-21T10:45:07;30.60;53.50
67897;DHT22;54698;48.428;9.964;2022-08-21T10:47:38;31.00;50.30
67897;DHT22;54698;48.428;9.964;2022-08-21T10:50:14;31.60;50.50
67897;DHT22;54698;48.428;9.964;2022-08-21T10:52:58;32.40;48.20
67897;DHT22;54698;48.428;9.964;2022-08-21T10:55:35;33.00;44.50
67897;DHT22;54698;48.428;9.964;2022-08-21T10:58:08;33.40;44.10
67897;DHT22;54698;48.428;9.964;2022-08-21T11:00:40;33.80;43.80
67897;DHT22;54698;48.428;9.964;2022-08-21T11:03:12;33.90;43.60
67897;DHT22;54698;48.428;9.964;2022-08-21T11:05:44;33.80;41.70
67897;DHT22;54698;48.428;9.964;2022-08-21T11:08:17;33.90;42.50
67897;DHT22;54698;48.428;9.964;2022-08-21T11:10:47;33.60;40.20
67897;DHT22;54698;48.428;9.964;2022-08-21T11:13:19;32.60;39.90
67897;DHT22;54698;48.428;9.964;2022-08-21T11:15:54;32.60;42.90
67897;DHT22;54698;48.428;9.964;2022-08-21T11:18:26;32.20;45.00
67897;DHT22;54698;48.428;9.964;2022-08-21T11:21:01;32.00;44.80
67897;DHT22;54698;48.428;9.964;2022-08-21T11:23:37;31.80;44.80
67897;DHT22;54698;48.428;9.964;2022-08-21T11:26:09;31.10;45.80
67897;DHT22;54698;48.428;9.964;2022-08-21T11:28:43;31.60;43.40
67897;DHT22;54698;48.428;9.964;2022-08-21T11:31:21;31.80;43.00
67897;DHT22;54698;48.428;9.964;2022-08-21T11:33:57;32.30;44.10
67897;DHT22;54698;48.428;9.964;2022-08-21T11:36:37;32.40;41.40
67897;DHT22;54698;48.428;9.964;2022-08-21T11:39:12;32.00;45.90
67897;DHT22;54698;48.428;9.964;2022-08-21T11:41:47;32.40;45.40
67897;DHT22;54698;48.428;9.964;2022-08-21T11:44:29;32.60;44.90
67897;DHT22;54698;48.428;9.964;2022-08-21T11:47:08;33.50;40.90
67897;DHT22;54698;48.428;9.964;2022-08-21T11:49:49;34.00;39.40
67897;DHT22;54698;48.428;9.964;2022-08-21T11:52:30;35.00;40.10
67897;DHT22;54698;48.428;9.964;2022-08-21T11:55:03;35.70;38.50
67897;DHT22;54698;48.428;9.964;2022-08-21T11:57:35;36.00;38.40
67897;DHT22;54698;48.428;9.964;2022-08-21T12:00:07;36.30;37.30
67897;DHT22;54698;48.428;9.964;2022-08-21T12:02:42;36.90;38.10
67897;DHT22;54698;48.428;9.964;2022-08-21T12:05:28;37.20;35.30
67897;DHT22;54698;48.428;9.964;2022-08-21T12:08:12;37.30;36.10
67897;DHT22;54698;48.428;9.964;2022-08-21T12:10:40;37.80;36.50
67897;DHT22;54698;48.428;9.964;2022-08-21T12:13:11;37.90;36.70
67897;DHT22;54698;48.428;9.964;2022-08-21T12:15:47;37.60;35.30
67897;DHT22;54698;48.428;9.964;2022-08-21T12:18:22;38.00;33.30
67897;DHT22;54698;48.428;9.964;2022-08-21T12:21:00;38.00;32.80
67897;DHT22;54698;48.428;9.964;2022-08-21T12:23:33;37.70;33.50
67897;DHT22;54698;48.428;9.964;2022-08-21T12:26:24;38.20;36.10
67897;DHT22;54698;48.428;9.964;2022-08-21T12:29:14;38.60;31.00
67897;DHT22;54698;48.428;9.964;2022-08-21T12:31:59;39.30;33.70
67897;DHT22;54698;48.428;9.964;2022-08-21T12:34:34;38.90;32.70
67897;DHT22;54698;48.428;9.964;2022-08-21T12:37:04;39.30;32.90
67897;DHT22;54698;48.428;9.964;2022-08-21T12:39:36;39.60;33.30
67897;DHT22;54698;48.428;9.964;2022-08-21T12:42:05;40.00;32.40
67897;DHT22;54698;48.428;9.964;2022-08-21T12:44:38;40.40;31.80
67897;DHT22;54698;48.428;9.964;2022-08-21T12:47:12;41.10;30.00
67897;DHT22;54698;48.428;9.964;2022-08-21T12:49:51;41.50;30.40
67897;DHT22;54698;48.428;9.964;2022-08-21T12:52:22;41.10;30.30
67897;DHT22;54698;48.428;9.964;2022-08-21T12:54:50;41.10;30.20
67897;DHT22;54698;48.428;9.964;2022-08-21T12:57:22;41.00;29.20
67897;DHT22;54698;48.428;9.964;2022-08-21T12:59:54;40.30;30.20
67897;DHT22;54698;48.428;9.964;2022-08-21T13:02:23;39.30;31.50
67897;DHT22;54698;48.428;9.964;2022-08-21T13:04:52;38.50;31.30
67897;DHT22;54698;48.428;9.964;2022-08-21T13:07:24;36.60;35.10
67897;DHT22;54698;48.428;9.964;2022-08-21T13:09:56;34.70;35.60
67897;DHT22;54698;48.428;9.964;2022-08-21T13:12:24;33.00;39.60
67897;DHT22;54698;48.428;9.964;2022-08-21T13:14:51;31.80;41.70
67897;DHT22;54698;48.428;9.964;2022-08-21T13:17:19;30.60;43.90
67897;DHT22;54698;48.428;9.964;2022-08-21T13:19:53;29.80;44.80
67897;DHT22;54698;48.428;9.964;2022-08-21T13:22:24;29.30;44.40
67897;DHT22;54698;48.428;9.964;2022-08-21T13:24:51;28.70;46.70
67897;DHT22;54698;48.428;9.964;2022-08-21T13:27:21;28.30;48.20
67897;DHT22;54698;48.428;9.964;2022-08-21T13:30:02;28.20;47.30
67897;DHT22;54698;48.428;9.964;2022-08-21T13:32:35;28.00;48.00
67897;DHT22;54698;48.428;9.964;2022-08-21T13:35:14;27.90;48.60
67897;DHT22;54698;48.428;9.964;2022-08-21T13:37:42;27.80;50.30
67897;DHT22;54698;48.428;9.964;2022-08-21T13:40:12;27.70;46.80
67897;DHT22;54698;48.428;9.964;2022-08-21T13:42:43;27.70;51.30
67897;DHT22;54698;48.428;9.964;2022-08-21T13:45:17;27.70;49.70
67897;DHT22;54698;48.428;9.964;2022-08-21T13:47:47;27.70;49.10
67897;DHT22;54698;48.428;9.964;2022-08-21T13:50:14;28.10;50.90
67897;DHT22;54698;48.428;9.964;2022-08-21T13:52:55;29.50;48.90
67897;DHT22;54698;48.428;9.964;2022-08-21T13:55:23;31.30;42.20
67897;DHT22;54698;48.428;9.964;2022-08-21T13:58:00;31.10;39.50
67897;DHT22;54698;48.428;9.964;2022-08-21T14:00:28;30.40;40.40
67897;DHT22;54698;48.428;9.964;2022-08-21T14:03:02;29.90;41.80
67897;DHT22;54698;48.428;9.964;2022-08-21T14:05:33;29.30;43.30
67897;DHT22;54698;48.428;9.964;2022-08-21T14:08:04;28.60;46.60
67897;DHT22;54698;48.428;9.964;2022-08-21T14:10:32;28.20;50.40
67897;DHT22;54698;48.428;9.964;2022-08-21T14:13:04;28.00;47.80
67897;DHT22;54698;48.428;9.964;2022-08-21T14:15:32;27.70;48.60
67897;DHT22;54698;48.428;9.964;2022-08-21T14:18:09;28.90;50.80
67897;DHT22;54698;48.428;9.964;2022-08-21T14:20:38;31.50;47.20
67897;DHT22;54698;48.428;9.964;2022-08-21T14:23:04;34.10;39.50
67897;DHT22;54698;48.428;9.964;2022-08-21T14:25:37;36.30;37.40
67897;DHT22;54698;48.428;9.964;2022-08-21T14:28:14;38.10;33.10
67897;DHT22;54698;48.428;9.964;2022-08-21T14:30:46;39.30;28.50
67897;DHT22;54698;48.428;9.964;2022-08-21T14:33:16;39.00;29.00
67897;DHT22;54698;48.428;9.964;2022-08-21T14:35:44;39.00;29.90
67897;DHT22;54698;48.428;9.964;2022-08-21T14:38:14;39.40;30.00
67897;DHT22;54698;48.428;9.964;2022-08-21T14:40:41;38.80;31.10
67897;DHT22;54698;48.428;9.964;2022-08-21T14:43:10;37.10;32.30
67897;DHT22;54698;48.428;9.964;2022-08-21T14:45:35;34.80;34.80
67897;DHT22;54698;48.428;9.964;2022-08-21T14:48:02;33.10;37.50
67897;DHT22;54698;48.428;9.964;2022-08-21T14:50:28;31.70;42.10
67897;DHT22;54698;48.428;9.964;2022-08-21T14:52:54;31.00;42.50
67897;DHT22;54698;48.428;9.964;2022-08-21T14:55:20;32.30;42.50
67897;DHT22;54698;48.428;9.964;2022-08-21T14:57:48;34.40;39.90
67897;DHT22;54698;48.428;9.964;2022-08-21T15:00:18;36.40;36.20
67897;DHT22;54698;48.428;9.964;2022-08-21T15:02:45;38.00;33.90
67897;DHT22;54698;48.428;9.964;2022-08-21T15:05:11;39.40;32.70
67897;DHT22;54698;48.428;9.964;2022-08-21T15:07:37;40.60;29.40
67897;DHT22;54698;48.428;9.964;2022-08-21T15:10:06;41.30;28.80
67897;DHT22;54698;48.428;9.964;2022-08-21T15:12:33;39.90;29.60
67897;DHT22;54698;48.428;9.964;2022-08-21T15:14:59;37.90;32.00
67897;DHT22;54698;48.428;9.964;2022-08-21T15:17:26;37.40;32.10
67897;DHT22;54698;48.428;9.964;2022-08-21T15:19:55;37.90;32.40
67897;DHT22;54698;48.428;9.964;2022-08-21T15:22:21;38.70;30.20
67897;DHT22;54698;48.428;9.964;2022-08-21T15:24:47;39.60;29.90
67897;DHT22;54698;48.428;9.964;2022-08-21T15:27:13;39.30;28.80
67897;DHT22;54698;48.428;9.964;2022-08-21T15:29:41;39.40;29.50
67897;DHT22;54698;48.428;9.964;2022-08-21T15:32:18;38.80;29.20
67897;DHT22;54698;48.428;9.964;2022-08-21T15:34:46;38.20;30.90
67897;DHT22;54698;48.428;9.964;2022-08-21T15:37:12;38.40;31.90
67897;DHT22;54698;48.428;9.964;2022-08-21T15:39:38;38.50;31.10
67897;DHT22;54698;48.428;9.964;2022-08-21T15:42:04;38.90;30.00
67897;DHT22;54698;48.428;9.964;2022-08-21T15:44:30;39.00;30.60
67897;DHT22;54698;48.428;9.964;2022-08-21T15:46:56;39.70;29.40
67897;DHT22;54698;48.428;9.964;2022-08-21T15:49:23;39.90;29.00